Time;durP1;ratioP1;P1;durP2;ratioP2;P2;SDS_P1;SDS_P2;PMS_P1;PMS_P2;Temp;Humidity;BMP_temperature;BMP_pressure;BME280_temperature;BME280_humidity;BME280_pressure;Samples;Min_cycle;Max_cycle;Signal;HPM_P1;HPM_P2
2021/06/02 00:02:22;;;;;;;5.57;3.95;;;;;;;14.74;58.75;100784.13;5044535;28;20496;-48
2021/06/02 00:04:51;;;;;;;5.43;3.55;;;;;;;15.27;58.08;100780.41;5057680;28;20047;-49
2021/06/02 00:07:25;;;;;;;6.07;3.20;;;;;;;14.82;58.78;100781.38;5061760;27;20072;-47
2021/06/02 00:09:52;;;;;;;5.32;3.58;;;;;;;15.26;56.34;100774.28;5027890;28;20091;-46
2021/06/02 00:12:18;;;;;;;5.17;3.77;;;;;;;14.75;57.68;100775.34;5048096;28;20093;-48
2021/06/02 00:14:45;;;;;;;6.22;3.65;;;;;;;15.12;57.44;100773.72;5050729;28;20789;-47
2021/06/02 00:17:11;;;;;;;5.95;4.68;;;;;;;14.84;57.73;100769.03;5051059;28;20109;-49
2021/06/02 00:19:37;;;;;;;4.40;3.38;;;;;;;14.86;57.49;100777.78;5067230;28;21302;-47
2021/06/02 00:22:05;;;;;;;6.57;3.30;;;;;;;14.67;57.74;100771.16;5049746;28;20054;-47
2021/06/02 00:24:31;;;;;;;5.68;3.50;;;;;;;14.86;55.73;100776.91;5070913;28;20102;-49
2021/06/02 00:26:59;;;;;;;4.60;3.10;;;;;;;14.91;56.51;100768.03;5068066;28;20495;-47
2021/06/02 00:29:28;;;;;;;5.40;3.20;;;;;;;14.64;56.95;100772.94;5065862;28;20135;-49
2021/06/02 00:31:55;;;;;;;6.18;3.50;;;;;;;14.45;57.58;100766.28;5069629;28;20044;-51
2021/06/02 00:34:20;;;;;;;4.35;3.08;;;;;;;14.44;57.54;100760.16;5066495;28;20468;-48
2021/06/02 00:36:47;;;;;;;5.95;3.45;;;;;;;14.50;56.26;100759.16;5065818;28;20027;-48
2021/06/02 00:39:13;;;;;;;5.82;3.17;;;;;;;14.72;56.55;100761.41;5068357;28;20519;-50
2021/06/02 00:41:41;;;;;;;4.88;3.33;;;;;;;14.46;58.04;100762.75;5048596;28;20044;-48
2021/06/02 00:44:09;;;;;;;4.45;3.05;;;;;;;14.40;57.06;100765.47;5064919;28;20198;-48
2021/06/02 00:46:38;;;;;;;5.00;3.20;;;;;;;14.33;57.48;100770.00;5058255;28;20032;-47
2021/06/02 00:49:09;;;;;;;5.07;3.35;;;;;;;14.24;57.03;100763.13;5053050;28;20157;-49
2021/06/02 00:51:35;;;;;;;4.70;3.13;;;;;;;14.78;55.64;100753.38;5048886;28;20035;-50
2021/06/02 00:54:03;;;;;;;4.47;3.05;;;;;;;14.79;56.32;100755.97;5064698;28;20395;-48
2021/06/02 00:56:42;;;;;;;5.05;3.05;;;;;;;14.64;56.03;100751.88;5068504;28;20417;-49
2021/06/02 00:59:10;;;;;;;5.00;3.30;;;;;;;14.27;58.65;100760.47;5067765;28;20028;-47
2021/06/02 01:01:36;;;;;;;4.90;3.20;;;;;;;14.46;56.52;100752.22;5065622;28;20043;-47
2021/06/02 01:04:03;;;;;;;5.82;3.30;;;;;;;14.56;55.45;100760.81;5066661;28;20043;-48
2021/06/02 01:06:33;;;;;;;5.32;3.05;;;;;;;14.60;55.45;100760.69;5072446;28;20443;-48
2021/06/02 01:09:01;;;;;;;4.93;3.35;;;;;;;14.72;55.22;100753.53;5052643;28;20538;-50
2021/06/02 01:11:28;;;;;;;4.63;2.85;;;;;;;14.61;55.78;100754.56;5067336;28;20485;-47
2021/06/02 01:13:57;;;;;;;7.38;3.08;;;;;;;14.75;54.34;100750.81;5067769;28;20856;-49
2021/06/02 01:16:34;;;;;;;4.63;3.08;;;;;;;14.63;55.91;100752.81;5065550;28;20515;-50
2021/06/02 01:19:00;;;;;;;4.40;3.17;;;;;;;14.60;55.94;100751.97;5066619;28;20074;-48
2021/06/02 01:21:28;;;;;;;4.50;3.38;;;;;;;14.60;54.81;100755.44;5058109;28;20032;-47
2021/06/02 01:23:59;;;;;;;4.22;2.90;;;;;;;14.60;54.38;100755.44;5071802;28;20040;-51
2021/06/02 01:26:27;;;;;;;4.93;3.40;;;;;;;14.31;52.20;100750.75;5069069;28;20044;-52
2021/06/02 01:28:54;;;;;;;4.53;3.00;;;;;;;14.08;55.09;100773.09;5071429;28;20044;-48
2021/06/02 01:31:42;;;;;;;5.00;2.60;;;;;;;13.99;56.33;100767.13;5072636;28;20048;-49
2021/06/02 01:34:17;;;;;;;4.72;2.80;;;;;;;14.20;56.41;100761.47;5022029;28;20475;-47
2021/06/02 01:37:15;;;;;;;4.22;2.90;;;;;;;13.99;56.53;100767.97;5068686;28;20042;-51
2021/06/02 01:40:18;;;;;;;5.35;2.75;;;;;;;13.56;56.49;100768.69;5050754;28;20039;-49
2021/06/02 01:43:14;;;;;;;5.70;3.00;;;;;;;13.33;59.82;100771.63;5051751;28;20459;-51
2021/06/02 01:45:49;;;;;;;5.55;3.08;;;;;;;13.17;60.74;100769.22;5071883;28;20949;-48
2021/06/02 01:48:50;;;;;;;6.25;3.50;;;;;;;13.08;61.47;100771.94;5056063;28;20046;-51
2021/06/02 01:51:33;;;;;;;5.82;3.55;;;;;;;12.91;62.23;100780.06;5031760;28;20113;-49
2021/06/02 01:54:33;;;;;;;4.80;3.38;;;;;;;13.03;60.57;100773.75;5067327;28;20577;-48
2021/06/02 01:57:20;;;;;;;5.13;3.85;;;;;;;12.89;61.68;100774.81;5067467;28;21515;-49
2021/06/02 02:00:04;;;;;;;5.47;3.40;;;;;;;12.66;63.07;100769.84;5054424;28;20036;-48
2021/06/02 02:03:08;;;;;;;5.63;3.50;;;;;;;12.62;64.34;100777.78;5060742;28;20033;-50
2021/06/02 02:06:03;;;;;;;5.60;3.65;;;;;;;12.41;65.34;100779.75;5052208;28;20040;-52
2021/06/02 02:08:54;;;;;;;5.63;3.53;;;;;;;12.33;65.10;100774.56;5067169;28;20697;-48
2021/06/02 02:11:38;;;;;;;6.20;3.60;;;;;;;12.26;66.20;100773.75;5066619;28;20044;-49
2021/06/02 02:14:22;;;;;;;4.55;3.42;;;;;;;12.50;64.44;100766.56;5070045;28;20052;-47
2021/06/02 02:16:57;;;;;;;4.78;3.55;;;;;;;12.39;64.81;100760.53;5070779;28;20052;-51
2021/06/02 02:19:42;;;;;;;5.22;3.65;;;;;;;12.34;66.12;100772.84;5072189;28;20082;-47
2021/06/02 02:22:29;;;;;;;5.57;3.67;;;;;;;12.11;66.88;100766.06;5051202;28;20044;-51
2021/06/02 02:25:06;;;;;;;6.47;4.10;;;;;;;12.01;67.29;100764.41;5052297;28;20075;-48
2021/06/02 02:28:14;;;;;;;6.95;4.10;;;;;;;11.92;67.87;100766.19;5075718;28;21084;-49
2021/06/02 02:31:01;;;;;;;6.65;3.88;;;;;;;11.93;67.48;100767.94;5053805;28;20586;-48
2021/06/02 02:33:48;;;;;;;5.40;4.07;;;;;;;12.04;67.17;100761.75;5075901;28;20036;-48
2021/06/02 02:36:28;;;;;;;5.88;3.83;;;;;;;11.91;68.19;100763.59;5069097;28;20526;-50
2021/06/02 02:39:02;;;;;;;6.05;3.80;;;;;;;11.79;68.25;100759.31;5070209;28;20040;-51
2021/06/02 02:42:03;;;;;;;5.57;4.30;;;;;;;11.62;69.17;100762.06;5072972;28;20113;-49
2021/06/02 02:44:59;;;;;;;5.53;4.20;;;;;;;11.62;69.19;100761.22;5071226;28;20043;-49
2021/06/02 02:47:57;;;;;;;6.10;3.85;;;;;;;11.89;68.18;100766.22;5070714;28;20047;-46
2021/06/02 02:50:33;;;;;;;7.00;3.90;;;;;;;11.85;68.49;100766.25;5043394;28;20701;-48
2021/06/02 02:53:05;;;;;;;5.85;4.10;;;;;;;11.45;69.67;100767.44;5070822;28;20052;-48
2021/06/02 02:55:36;;;;;;;6.45;4.20;;;;;;;11.47;70.64;100763.06;5067166;28;20139;-48
2021/06/02 02:58:35;;;;;;;5.95;4.45;;;;;;;11.56;68.89;100769.97;5068976;28;20111;-48
2021/06/02 03:01:09;;;;;;;6.93;4.53;;;;;;;11.53;68.59;100775.22;5049449;28;20043;-51
2021/06/02 03:03:43;;;;;;;6.45;4.18;;;;;;;11.17;70.73;100775.47;5065676;28;20101;-51
2021/06/02 03:06:25;;;;;;;6.45;4.28;;;;;;;11.18;71.31;100779.78;5072993;28;20024;-49
2021/06/02 03:09:13;;;;;;;5.68;4.35;;;;;;;11.06;71.79;100780.75;5068661;28;20043;-48
2021/06/02 03:11:48;;;;;;;6.38;4.10;;;;;;;11.16;70.52;100775.44;5044742;28;20285;-48
2021/06/02 03:14:44;;;;;;;5.68;4.18;;;;;;;11.42;69.59;100780.53;5045905;28;20109;-48
2021/06/02 03:17:38;;;;;;;5.57;4.43;;;;;;;11.22;70.56;100784.13;5051519;28;20125;-47
2021/06/02 03:20:09;;;;;;;7.25;4.30;;;;;;;10.93;71.31;100781.66;5060270;28;20044;-47
2021/06/02 03:22:52;;;;;;;5.63;3.88;;;;;;;11.19;69.80;100781.53;5060419;28;20028;-48
2021/06/02 03:25:27;;;;;;;6.00;3.70;;;;;;;11.17;70.45;100779.81;5067402;28;20051;-50
2021/06/02 03:28:17;;;;;;;6.68;4.50;;;;;;;10.93;71.55;100779.06;5073256;28;20048;-47
2021/06/02 03:31:26;;;;;;;6.50;4.10;;;;;;;10.85;72.44;100780.84;5068391;28;20559;-47
2021/06/02 03:34:12;;;;;;;6.60;3.90;;;;;;;10.74;71.94;100778.25;5018113;28;20100;-48
2021/06/02 03:36:56;;;;;;;5.80;4.07;;;;;;;10.68;73.41;100781.75;5067327;28;20035;-48
2021/06/02 03:39:42;;;;;;;8.10;4.13;;;;;;;10.67;72.85;100784.38;5046135;28;20076;-47
2021/06/02 03:42:40;;;;;;;7.15;4.30;;;;;;;10.77;71.96;100780.00;5065219;28;20399;-49
2021/06/02 03:45:19;;;;;;;6.05;3.90;;;;;;;10.92;71.52;100785.16;5067677;28;20976;-47
2021/06/02 03:48:18;;;;;;;6.30;4.18;;;;;;;11.06;71.60;100777.25;5070215;28;20427;-48
2021/06/02 03:51:02;;;;;;;7.35;4.35;;;;;;;10.84;72.58;100785.19;5046093;28;20047;-49
2021/06/02 03:53:36;;;;;;;5.82;4.30;;;;;;;11.23;70.15;100787.63;5066588;28;20705;-51
2021/06/02 03:56:05;;;;;;;5.72;4.40;;;;;;;11.08;70.26;100796.44;5053194;28;20131;-48
2021/06/02 03:59:04;;;;;;;6.35;4.28;;;;;;;10.81;72.45;100800.88;5051998;27;20033;-47
2021/06/02 04:01:30;;;;;;;6.22;4.00;;;;;;;11.00;71.61;100804.31;5041013;27;20531;-49
2021/06/02 04:04:05;;;;;;;6.20;4.45;;;;;;;10.93;71.35;100801.75;5044892;27;20048;-47
2021/06/02 04:06:43;;;;;;;7.10;4.35;;;;;;;10.66;73.69;100798.31;5047323;27;21323;-46
2021/06/02 04:09:23;;;;;;;5.68;4.32;;;;;;;10.69;73.49;100795.72;5052487;28;21108;-48
2021/06/02 04:12:04;;;;;;;10.63;4.82;;;;;;;10.78;72.96;100793.06;5045764;28;20075;-48
2021/06/02 04:14:37;;;;;;;6.97;4.57;;;;;;;10.90;71.67;100787.78;5044829;27;20072;-47
2021/06/02 04:17:03;;;;;;;5.88;4.25;;;;;;;11.06;70.86;100790.31;5023900;28;20048;-47
2021/06/02 04:19:32;;;;;;;6.40;4.35;;;;;;;10.88;72.19;100794.78;5048652;27;20124;-50
2021/06/02 04:22:08;;;;;;;6.35;4.63;;;;;;;11.01;71.97;100797.34;5034106;28;20053;-47
2021/06/02 04:24:36;;;;;;;7.65;4.30;;;;;;;11.03;70.90;100803.44;5049079;27;20117;-48
2021/06/02 04:27:04;;;;;;;6.22;4.22;;;;;;;10.97;72.14;100787.78;5059726;28;20024;-47
2021/06/02 04:29:31;;;;;;;7.35;4.43;;;;;;;10.92;72.58;100789.53;5077912;27;20048;-48
2021/06/02 04:31:58;;;;;;;5.53;4.18;;;;;;;10.90;72.49;100800.00;5049530;28;20283;-47
2021/06/02 04:34:26;;;;;;;10.10;4.30;;;;;;;10.96;72.46;100792.13;5031575;28;20098;-46
2021/06/02 04:36:57;;;;;;;6.43;4.30;;;;;;;10.97;73.39;100793.00;5051590;28;20040;-52
2021/06/02 04:39:25;;;;;;;5.70;3.95;;;;;;;10.95;72.67;100795.63;5071812;28;20032;-47
2021/06/02 04:42:02;;;;;;;6.40;4.32;;;;;;;10.95;72.48;100786.88;5048878;28;20759;-46
2021/06/02 04:44:32;;;;;;;6.78;4.10;;;;;;;10.95;73.09;100781.66;5057141;28;20038;-47
2021/06/02 04:46:59;;;;;;;5.93;3.90;;;;;;;11.16;70.71;100784.19;5050681;28;20043;-48
2021/06/02 04:49:36;;;;;;;5.45;3.95;;;;;;;11.21;72.51;100778.91;5043149;28;20044;-46
2021/06/02 04:52:10;;;;;;;7.18;3.90;;;;;;;11.30;70.67;100791.97;5051567;28;20040;-48
2021/06/02 04:55:06;;;;;;;8.02;5.10;;;;;;;11.23;72.52;100790.25;5067468;28;20043;-48
2021/06/02 04:58:15;;;;;;;6.85;4.30;;;;;;;11.27;72.51;100793.72;5038505;28;20043;-47
2021/06/02 05:01:03;;;;;;;6.28;4.40;;;;;;;11.36;72.59;100786.66;5068090;28;20448;-48
2021/06/02 05:03:47;;;;;;;6.13;4.57;;;;;;;11.39;70.98;100793.63;5050594;28;20135;-47
2021/06/02 05:06:41;;;;;;;6.28;4.65;;;;;;;11.41;72.52;100790.13;5049592;28;20271;-46
2021/06/02 05:09:35;;;;;;;6.28;4.57;;;;;;;11.52;72.80;100792.69;5046646;28;21661;-47
2021/06/02 05:12:23;;;;;;;5.95;4.35;;;;;;;11.59;71.89;100793.53;5050963;28;20603;-47
2021/06/02 05:15:35;;;;;;;6.05;4.18;;;;;;;11.72;72.05;100794.31;5069953;27;20044;-47
2021/06/02 05:18:32;;;;;;;6.35;4.10;;;;;;;11.76;71.69;100799.50;5011568;28;20555;-49
2021/06/02 05:24:38;;;;;;;6.97;4.35;;;;;;;11.96;73.74;100802.88;5072367;28;20632;-51
2021/06/02 05:27:17;;;;;;;7.28;4.28;;;;;;;12.01;71.30;100801.94;5022633;28;20475;-49
2021/06/02 05:30:24;;;;;;;6.50;4.70;;;;;;;12.11;70.69;100807.13;5036589;28;20052;-49
2021/06/02 05:33:11;;;;;;;6.88;4.82;;;;;;;12.18;72.79;100801.78;5051086;28;20472;-48
2021/06/02 05:36:14;;;;;;;7.88;3.72;;;;;;;12.26;72.60;100809.59;5066949;28;20038;-48
2021/06/02 05:39:05;;;;;;;5.82;4.20;;;;;;;12.33;72.48;100813.03;5065276;27;20040;-48
2021/06/02 05:41:40;;;;;;;6.35;4.13;;;;;;;12.40;71.41;100809.47;5068109;27;20421;-48
2021/06/02 05:44:44;;;;;;;6.95;4.60;;;;;;;12.46;72.95;100813.78;5051215;28;20247;-47
2021/06/02 05:47:28;;;;;;;7.68;4.60;;;;;;;12.60;68.64;100799.66;5069929;28;20054;-48
2021/06/02 05:50:13;;;;;;;7.43;4.60;;;;;;;12.82;72.19;100798.53;5070776;28;20082;-48
2021/06/02 05:53:00;;;;;;;6.53;4.27;;;;;;;12.91;71.06;100798.41;5031172;28;20050;-45
2021/06/02 05:56:15;;;;;;;7.70;4.90;;;;;;;13.02;71.12;100803.53;5037238;28;20056;-48
2021/06/02 05:59:02;;;;;;;7.63;4.88;;;;;;;13.16;71.17;100798.97;5011107;28;20303;-49
2021/06/02 06:01:28;;;;;;;10.60;5.43;;;;;;;13.29;71.60;100800.53;5011331;28;20070;-47
2021/06/02 06:04:31;;;;;;;9.13;5.25;;;;;;;13.52;71.81;100812.50;5068514;28;20505;-48
2021/06/02 06:07:43;;;;;;;11.35;6.05;;;;;;;13.70;72.56;100802.63;5031370;28;20757;-47
2021/06/02 06:10:41;;;;;;;10.45;5.30;;;;;;;13.83;70.13;100803.28;5014062;28;20112;-50
2021/06/02 06:13:38;;;;;;;7.75;4.70;;;;;;;14.06;69.74;100800.28;5054396;28;20127;-49
2021/06/02 06:16:04;;;;;;;5.43;4.20;;;;;;;14.16;68.98;100799.22;5042285;28;20148;-50
2021/06/02 06:19:19;;;;;;;7.43;4.45;;;;;;;14.40;69.97;100804.94;5050783;28;20455;-48
2021/06/02 06:22:00;;;;;;;6.38;3.75;;;;;;;14.50;66.75;100806.50;5061017;28;20437;-49
2021/06/02 06:24:31;;;;;;;4.70;3.30;;;;;;;14.55;63.89;100802.03;5045662;28;20445;-48
2021/06/02 06:27:11;;;;;;;6.43;3.63;;;;;;;14.58;61.90;100798.47;5052266;28;20367;-52
2021/06/02 06:29:58;;;;;;;5.32;3.47;;;;;;;14.83;64.32;100793.63;5069992;28;20077;-48
2021/06/02 06:32:25;;;;;;;6.90;3.88;;;;;;;14.91;63.41;100789.09;5039248;28;20086;-47
2021/06/02 06:34:53;;;;;;;7.13;3.63;;;;;;;14.93;64.25;100789.91;5031603;28;20444;-48
2021/06/02 06:37:22;;;;;;;5.45;3.65;;;;;;;14.98;64.75;100787.16;5066464;28;20047;-49
2021/06/02 06:39:56;;;;;;;4.95;3.40;;;;;;;15.06;63.60;100792.28;5064669;28;20042;-49
2021/06/02 06:42:28;;;;;;;6.68;3.45;;;;;;;15.09;63.55;100789.56;5041389;28;20052;-48
2021/06/02 06:45:05;;;;;;;5.32;3.72;;;;;;;15.31;61.35;100792.59;5057392;28;20044;-47
2021/06/02 06:47:34;;;;;;;5.45;3.75;;;;;;;15.42;59.33;100792.38;5024276;28;20094;-47
2021/06/02 06:50:01;;;;;;;6.50;3.60;;;;;;;15.55;60.04;100795.56;5050964;28;20488;-47
2021/06/02 06:52:29;;;;;;;8.07;3.78;;;;;;;15.92;58.30;100794.72;5051170;28;20043;-49
2021/06/02 06:54:57;;;;;;;6.13;4.05;;;;;;;16.05;57.84;100796.16;5075080;28;20052;-47
2021/06/02 06:57:24;;;;;;;5.70;3.60;;;;;;;16.08;57.86;100803.13;5053940;28;20445;-48
2021/06/02 06:59:51;;;;;;;6.43;3.38;;;;;;;16.25;59.16;100794.78;5064438;28;20050;-48
2021/06/02 07:02:18;;;;;;;5.45;3.63;;;;;;;16.47;60.83;100801.19;5050756;28;20085;-49
2021/06/02 07:04:45;;;;;;;5.50;3.85;;;;;;;17.01;57.97;100791.78;5059520;28;20040;-49
2021/06/02 07:07:14;;;;;;;6.95;4.05;;;;;;;17.16;56.18;100786.97;5058029;28;20140;-52
2021/06/02 07:09:41;;;;;;;6.43;3.83;;;;;;;17.30;56.22;100789.19;5079160;28;20085;-49
2021/06/02 07:12:08;;;;;;;5.80;3.50;;;;;;;17.35;55.26;100785.50;5046644;28;20036;-49
2021/06/02 07:14:38;;;;;;;5.60;3.80;;;;;;;18.28;51.55;100790.44;5052095;28;21067;-49
2021/06/02 07:17:05;;;;;;;6.00;3.80;;;;;;;18.31;51.04;100787.66;5015261;28;20059;-49
2021/06/02 07:19:35;;;;;;;4.45;3.35;;;;;;;18.04;51.88;100793.00;5030485;28;20130;-48
2021/06/02 07:22:02;;;;;;;5.40;3.78;;;;;;;18.54;51.28;100786.00;5067993;28;20058;-48
2021/06/02 07:24:29;;;;;;;8.10;4.20;;;;;;;18.18;52.87;100791.69;5050585;28;20031;-53
2021/06/02 07:26:56;;;;;;;5.45;3.50;;;;;;;18.14;53.51;100798.84;5066357;28;20483;-52
2021/06/02 07:29:26;;;;;;;5.70;3.97;;;;;;;18.18;51.63;100794.34;5048716;28;20040;-50
2021/06/02 07:31:53;;;;;;;6.88;3.90;;;;;;;18.45;50.22;100805.72;5032734;28;20078;-49
2021/06/02 07:34:21;;;;;;;6.72;3.65;;;;;;;18.29;49.96;100807.16;5052702;28;20058;-49
2021/06/02 07:36:47;;;;;;;6.17;3.87;;;;;;;18.45;50.08;100800.41;5051321;28;20048;-50
2021/06/02 07:39:14;;;;;;;7.90;3.78;;;;;;;18.59;49.07;100802.56;5038147;28;20571;-52
2021/06/02 07:41:39;;;;;;;5.50;3.50;;;;;;;18.85;47.80;100795.47;5024639;28;20040;-50
2021/06/02 07:44:05;;;;;;;6.43;3.60;;;;;;;18.83;48.96;100799.94;5030106;28;20085;-53
2021/06/02 07:46:35;;;;;;;6.57;3.63;;;;;;;19.31;46.62;100790.22;5037679;28;20108;-51
2021/06/02 07:49:03;;;;;;;6.60;3.80;;;;;;;18.90;48.26;100790.91;5052125;28;20035;-49
2021/06/02 07:51:29;;;;;;;6.20;3.77;;;;;;;18.77;48.80;100792.25;5045958;28;20044;-53
2021/06/02 07:53:57;;;;;;;5.28;3.20;;;;;;;18.89;48.34;100789.16;5065604;28;20351;-47
2021/06/02 07:56:24;;;;;;;5.97;3.53;;;;;;;19.49;46.12;100784.19;5069857;28;20043;-50
2021/06/02 07:58:50;;;;;;;4.93;3.83;;;;;;;19.82;43.86;100778.47;5054732;28;20044;-52
2021/06/02 08:01:15;;;;;;;5.68;3.58;;;;;;;19.84;44.71;100783.72;5049321;28;20027;-50
2021/06/02 08:03:42;;;;;;;6.32;4.10;;;;;;;19.45;46.28;100787.03;5065306;28;20046;-51
2021/06/02 08:06:08;;;;;;;6.05;3.55;;;;;;;19.30;46.45;100783.19;5075294;28;20479;-52
2021/06/02 08:08:34;;;;;;;5.72;3.63;;;;;;;20.04;44.27;100778.44;5057255;28;20117;-49
2021/06/02 08:11:00;;;;;;;5.57;3.42;;;;;;;19.94;45.26;100778.88;5043638;28;20088;-51
2021/06/02 08:13:27;;;;;;;4.80;3.60;;;;;;;19.94;44.59;100779.75;5021972;28;20616;-49
2021/06/02 08:15:52;;;;;;;5.13;3.65;;;;;;;20.78;41.27;100776.16;5058140;28;20596;-48
2021/06/02 08:18:18;;;;;;;5.43;3.65;;;;;;;20.32;43.75;100782.53;5033358;28;20040;-48
2021/06/02 08:20:44;;;;;;;5.03;3.22;;;;;;;20.12;44.19;100777.22;5047638;28;20203;-48
2021/06/02 08:23:10;;;;;;;5.35;3.70;;;;;;;20.62;41.99;100781.28;5059268;28;20577;-49
2021/06/02 08:25:36;;;;;;;5.35;3.10;;;;;;;21.06;41.13;100781.06;5037375;28;20120;-50
2021/06/02 08:28:02;;;;;;;5.22;3.30;;;;;;;21.14;41.90;100778.03;5048811;28;20055;-50
2021/06/02 08:30:29;;;;;;;6.25;3.42;;;;;;;20.51;43.61;100784.41;5053524;28;20036;-49
2021/06/02 08:32:54;;;;;;;7.32;3.60;;;;;;;21.30;39.97;100779.03;5066876;28;20052;-51
2021/06/02 08:35:21;;;;;;;5.15;3.20;;;;;;;21.71;39.14;100784.16;5058683;28;20563;-50
2021/06/02 08:37:47;;;;;;;5.88;3.50;;;;;;;21.73;40.29;100774.31;5054513;28;20059;-48
2021/06/02 08:40:14;;;;;;;5.55;3.10;;;;;;;21.49;40.62;100778.13;5048940;28;20450;-48
2021/06/02 08:42:45;;;;;;;5.60;3.10;;;;;;;21.63;39.00;100774.81;5046226;27;20036;-48
2021/06/02 08:45:12;;;;;;;4.47;3.10;;;;;;;21.20;40.18;100781.28;5055360;28;20031;-48
2021/06/02 08:47:39;;;;;;;5.37;3.27;;;;;;;21.54;39.78;100770.84;5049806;28;20397;-50
2021/06/02 08:50:07;;;;;;;4.47;3.03;;;;;;;21.63;37.95;100778.38;5049704;28;20355;-47
2021/06/02 08:52:38;;;;;;;4.85;3.00;;;;;;;22.03;36.65;100784.34;5049495;28;20058;-48
2021/06/02 08:55:06;;;;;;;4.53;3.30;;;;;;;21.49;41.47;100779.00;5052331;28;20097;-52
2021/06/02 08:57:38;;;;;;;7.88;3.35;;;;;;;22.05;36.86;100778.94;5075105;28;20042;-50
2021/06/02 09:00:06;;;;;;;6.47;3.08;;;;;;;22.22;35.20;100783.41;5070194;28;20024;-48
2021/06/02 09:02:33;;;;;;;5.00;3.17;;;;;;;21.90;38.02;100788.56;5052651;28;20068;-53
2021/06/02 09:04:58;;;;;;;4.60;2.83;;;;;;;21.75;36.93;100772.44;5046070;28;21190;-51
2021/06/02 09:07:25;;;;;;;4.43;3.03;;;;;;;22.45;34.73;100777.75;5053162;28;20039;-50
2021/06/02 09:09:52;;;;;;;7.55;2.90;;;;;;;22.09;35.70;100770.72;5051089;28;20059;-49
2021/06/02 09:12:32;;;;;;;5.10;3.15;;;;;;;22.87;33.33;100777.34;5069106;28;20083;-51
2021/06/02 09:15:10;;;;;;;3.88;2.83;;;;;;;23.22;30.36;100771.88;5030336;28;20378;-50
2021/06/02 09:17:58;;;;;;;5.47;3.10;;;;;;;23.00;33.15;100775.75;5052962;28;20483;-47
2021/06/02 09:20:41;;;;;;;5.13;2.80;;;;;;;22.57;35.09;100780.75;5064828;28;20048;-48
2021/06/02 09:23:33;;;;;;;6.80;3.13;;;;;;;22.58;32.45;100780.66;5050104;28;20043;-50
2021/06/02 09:26:11;;;;;;;5.03;2.90;;;;;;;22.62;32.76;100773.34;5057168;28;20439;-50
2021/06/02 09:29:02;;;;;;;5.32;3.20;;;;;;;22.84;33.81;100770.38;5049746;28;20428;-50
2021/06/02 09:31:38;;;;;;;5.70;3.10;;;;;;;23.69;29.81;100771.00;5040126;28;20484;-49
2021/06/02 09:34:19;;;;;;;6.13;2.67;;;;;;;23.10;32.63;100768.09;5045803;28;20578;-49
2021/06/02 09:36:47;;;;;;;4.18;2.75;;;;;;;22.89;33.88;100771.00;5067897;28;20035;-52
2021/06/02 09:39:21;;;;;;;;;;;;;;;23.72;30.84;100772.63;5055033;28;21020;-49
2021/06/02 09:41:57;;;;;;;4.65;2.90;;;;;;;23.68;31.82;100777.28;5062425;28;20002;-49
2021/06/02 09:44:23;;;;;;;6.53;2.83;;;;;;;23.49;32.66;100765.97;5070603;28;20457;-51
2021/06/02 09:46:59;;;;;;;6.05;3.70;;;;;;;23.63;32.35;100771.34;5069431;28;20087;-48
2021/06/02 09:49:26;;;;;;;4.63;3.03;;;;;;;23.86;32.88;100774.50;5051619;28;20135;-48
2021/06/02 09:51:52;;;;;;;4.03;2.75;;;;;;;23.98;30.20;100765.75;5071903;28;20037;-48
2021/06/02 09:54:23;;;;;;;7.72;4.18;;;;;;;23.13;34.27;100768.78;5047428;28;20097;-50
2021/06/02 09:56:49;;;;;;;4.90;2.92;;;;;;;24.22;29.40;100771.47;5043140;28;20501;-49
2021/06/02 09:59:16;;;;;;;4.47;3.33;;;;;;;24.02;30.94;100777.97;5063819;28;20040;-51
2021/06/02 10:01:50;;;;;;;7.38;3.22;;;;;;;23.84;31.50;100769.22;5067826;28;20043;-48
2021/06/02 10:04:15;;;;;;;4.22;2.60;;;;;;;23.58;31.72;100765.41;5073121;28;20097;-48
2021/06/02 10:06:41;;;;;;;5.15;3.22;;;;;;;23.33;32.61;100764.16;5069209;28;20274;-53
2021/06/02 10:09:07;;;;;;;3.95;2.90;;;;;;;23.74;31.87;100771.56;5069956;28;20231;-49
2021/06/02 10:11:34;;;;;;;4.50;3.10;;;;;;;24.29;29.65;100770.13;5066033;28;20134;-50
2021/06/02 10:14:01;;;;;;;4.63;2.90;;;;;;;24.21;30.76;100767.06;5065544;28;20148;-49
2021/06/02 10:16:40;;;;;;;4.95;2.72;;;;;;;24.42;30.35;100766.72;5056075;28;20476;-48
2021/06/02 10:19:06;;;;;;;5.45;2.80;;;;;;;24.56;29.46;100757.84;5062653;28;20079;-48
2021/06/02 10:22:03;;;;;;;5.40;2.83;;;;;;;24.13;33.03;100762.22;5065189;28;20238;-49
2021/06/02 10:24:31;;;;;;;4.30;2.90;;;;;;;24.55;30.41;100756.13;5051530;28;20071;-49
2021/06/02 10:26:57;;;;;;;4.35;2.60;;;;;;;24.27;33.63;100765.84;5067677;28;20617;-52
2021/06/02 10:29:23;;;;;;;4.18;2.47;;;;;;;24.40;31.00;100773.97;5065286;28;20048;-48
2021/06/02 10:31:49;;;;;;;4.50;2.70;;;;;;;24.55;30.66;100766.81;5052947;28;20485;-51
2021/06/02 10:34:15;;;;;;;4.07;2.60;;;;;;;24.84;27.11;100757.03;5056341;28;20060;-49
2021/06/02 10:36:43;;;;;;;3.75;2.60;;;;;;;24.81;30.13;100773.22;5065917;28;20474;-51
2021/06/02 10:39:09;;;;;;;6.90;2.60;;;;;;;25.14;26.23;100772.91;5053116;28;20421;-51
2021/06/02 10:41:49;;;;;;;3.92;2.65;;;;;;;25.22;26.58;100771.56;5061079;28;20529;-50
2021/06/02 10:44:20;;;;;;;3.90;2.47;;;;;;;25.00;27.32;100762.22;5076753;28;20051;-50
2021/06/02 10:46:48;;;;;;;4.82;2.75;;;;;;;25.11;28.14;100770.41;5072386;28;20088;-51
2021/06/02 10:49:14;;;;;;;4.75;2.67;;;;;;;25.23;27.83;100767.94;5043056;28;20134;-50
2021/06/02 10:51:43;;;;;;;4.20;2.63;;;;;;;24.90;29.64;100771.81;5067910;28;20574;-50
2021/06/02 10:54:14;;;;;;;4.28;2.92;;;;;;;24.94;28.19;100768.00;5066847;28;20028;-50
2021/06/02 10:56:42;;;;;;;4.28;2.38;;;;;;;25.66;25.37;100771.34;5065652;28;20063;-52
2021/06/02 10:59:38;;;;;;;5.03;2.78;;;;;;;24.92;28.99;100776.13;5068129;28;20394;-49
2021/06/02 11:02:03;;;;;;;3.78;2.70;;;;;;;25.05;25.29;100770.81;5053790;28;20448;-49
2021/06/02 11:04:30;;;;;;;3.90;2.70;;;;;;;25.10;26.65;100770.53;5069409;28;20040;-50
2021/06/02 11:07:15;;;;;;;5.47;2.67;;;;;;;24.92;27.18;100753.84;5067173;28;20040;-48
2021/06/02 11:10:06;;;;;;;6.25;2.80;;;;;;;25.68;27.43;100744.47;5067155;28;20059;-51
2021/06/02 11:12:47;;;;;;;4.28;2.72;;;;;;;25.96;26.88;100745.25;5043822;28;20089;-52
2021/06/02 11:15:28;;;;;;;3.30;2.47;;;;;;;25.80;27.53;100749.00;5067928;28;20044;-48
2021/06/02 11:18:05;;;;;;;3.88;2.63;;;;;;;26.21;24.40;100759.69;5066291;28;20043;-50
2021/06/02 11:20:58;;;;;;;3.97;2.23;;;;;;;25.79;25.31;100751.78;5067982;28;20050;-52
2021/06/02 11:23:35;;;;;;;4.05;2.50;;;;;;;25.57;25.69;100747.00;5040856;28;20077;-53
2021/06/02 11:26:28;;;;;;;4.15;2.70;;;;;;;25.68;27.37;100752.50;5042931;28;20045;-49
2021/06/02 11:28:55;;;;;;;3.40;2.50;;;;;;;25.43;28.83;100748.75;5067627;28;20047;-50
2021/06/02 11:31:23;;;;;;;3.90;2.58;;;;;;;25.11;31.99;100742.81;5067525;28;20135;-51
2021/06/02 11:33:50;;;;;;;4.35;2.60;;;;;;;25.90;28.28;100745.69;5070902;28;20036;-49
2021/06/02 11:36:16;;;;;;;5.72;2.90;;;;;;;25.99;27.62;100745.91;5065937;28;20086;-50
2021/06/02 11:38:42;;;;;;;4.40;2.70;;;;;;;25.91;29.57;100747.41;5052110;28;20126;-50
2021/06/02 11:41:10;;;;;;;5.10;2.58;;;;;;;26.42;24.59;100751.97;5043112;28;20055;-50
2021/06/02 11:43:36;;;;;;;3.83;2.47;;;;;;;25.99;25.14;100758.47;5068391;28;20416;-51
2021/06/02 11:46:02;;;;;;;5.57;2.58;;;;;;;26.31;24.23;100750.06;5068922;28;20035;-50
2021/06/02 11:48:30;;;;;;;4.95;2.75;;;;;;;26.09;27.84;100751.53;5070610;28;20028;-50
2021/06/02 11:50:58;;;;;;;3.47;2.45;;;;;;;26.32;24.33;100749.06;5068795;28;20074;-50
2021/06/02 11:53:38;;;;;;;3.65;2.55;;;;;;;25.98;27.12;100738.84;5073941;28;20132;-50
2021/06/02 11:56:04;;;;;;;5.53;2.75;;;;;;;25.89;28.70;100742.19;5069963;28;20130;-52
2021/06/02 11:58:29;;;;;;;4.40;2.53;;;;;;;26.34;27.26;100747.16;5071042;28;20048;-53
2021/06/02 12:00:56;;;;;;;6.25;2.60;;;;;;;26.10;28.34;100752.38;5049902;28;20680;-52
2021/06/02 12:03:23;;;;;;;4.80;3.00;;;;;;;26.22;25.62;100750.69;5050467;28;20036;-53
2021/06/02 12:05:52;;;;;;;3.47;2.33;;;;;;;26.44;25.55;100744.69;5070084;28;20122;-50
2021/06/02 12:08:18;;;;;;;3.90;2.47;;;;;;;26.48;26.48;100744.34;5067619;28;20405;-51